sensor_id;sensor_type;location;lat;lon;timestamp;P1;durP1;ratioP1;P2;durP2;ratioP2
11048;SDS011;5577;42.706;23.160;2023-05-07T00:01:27;14.87;;;11.57;;
11048;SDS011;5577;42.706;23.160;2023-05-07T00:04:11;12.87;;;11.17;;
11048;SDS011;5577;42.706;23.160;2023-05-07T00:06:55;15.17;;;11.33;;
11048;SDS011;5577;42.706;23.160;2023-05-07T00:09:39;14.57;;;10.70;;
11048;SDS011;5577;42.706;23.160;2023-05-07T00:12:23;11.93;;;10.63;;
11048;SDS011;5577;42.706;23.160;2023-05-07T00:15:07;12.23;;;10.43;;
11048;SDS011;5577;42.706;23.160;2023-05-07T00:17:52;13.43;;;11.03;;
11048;SDS011;5577;42.706;23.160;2023-05-07T00:20:35;17.23;;;12.20;;
11048;SDS011;5577;42.706;23.160;2023-05-07T00:23:19;13.43;;;11.07;;
11048;SDS011;5577;42.706;23.160;2023-05-07T00:26:03;13.00;;;11.70;;
11048;SDS011;5577;42.706;23.160;2023-05-07T00:28:48;12.17;;;10.63;;
11048;SDS011;5577;42.706;23.160;2023-05-07T00:31:31;12.23;;;10.90;;
11048;SDS011;5577;42.706;23.160;2023-05-07T00:34:15;12.33;;;10.60;;
11048;SDS011;5577;42.706;23.160;2023-05-07T00:37:00;14.27;;;11.47;;
11048;SDS011;5577;42.706;23.160;2023-05-07T00:39:45;14.00;;;10.97;;
11048;SDS011;5577;42.706;23.160;2023-05-07T00:42:29;14.70;;;11.93;;
11048;SDS011;5577;42.706;23.160;2023-05-07T00:45:13;13.33;;;11.37;;
11048;SDS011;5577;42.706;23.160;2023-05-07T00:47:58;17.83;;;13.17;;
11048;SDS011;5577;42.706;23.160;2023-05-07T00:50:44;15.97;;;11.97;;
11048;SDS011;5577;42.706;23.160;2023-05-07T00:53:29;17.10;;;12.67;;
11048;SDS011;5577;42.706;23.160;2023-05-07T00:56:13;14.30;;;11.73;;
11048;SDS011;5577;42.706;23.160;2023-05-07T00:58:57;14.37;;;11.70;;
11048;SDS011;5577;42.706;23.160;2023-05-07T01:01:42;14.43;;;11.63;;
11048;SDS011;5577;42.706;23.160;2023-05-07T01:04:26;11.67;;;10.47;;
11048;SDS011;5577;42.706;23.160;2023-05-07T01:07:10;14.53;;;10.73;;
11048;SDS011;5577;42.706;23.160;2023-05-07T01:09:54;12.43;;;10.57;;
11048;SDS011;5577;42.706;23.160;2023-05-07T01:12:39;13.53;;;10.63;;
11048;SDS011;5577;42.706;23.160;2023-05-07T01:15:24;12.77;;;10.20;;
11048;SDS011;5577;42.706;23.160;2023-05-07T01:18:09;11.23;;;9.87;;
11048;SDS011;5577;42.706;23.160;2023-05-07T01:20:53;12.77;;;10.43;;
11048;SDS011;5577;42.706;23.160;2023-05-07T01:23:42;12.43;;;9.97;;
11048;SDS011;5577;42.706;23.160;2023-05-07T01:26:28;13.23;;;10.40;;
11048;SDS011;5577;42.706;23.160;2023-05-07T01:29:12;11.47;;;10.13;;
11048;SDS011;5577;42.706;23.160;2023-05-07T01:31:56;10.63;;;9.53;;
11048;SDS011;5577;42.706;23.160;2023-05-07T01:34:43;10.53;;;9.30;;
11048;SDS011;5577;42.706;23.160;2023-05-07T01:37:31;13.17;;;9.73;;
11048;SDS011;5577;42.706;23.160;2023-05-07T01:40:16;12.30;;;10.17;;
11048;SDS011;5577;42.706;23.160;2023-05-07T01:43:01;12.33;;;9.90;;
11048;SDS011;5577;42.706;23.160;2023-05-07T01:45:46;14.13;;;9.53;;
11048;SDS011;5577;42.706;23.160;2023-05-07T01:48:32;10.63;;;9.40;;
11048;SDS011;5577;42.706;23.160;2023-05-07T01:51:17;11.23;;;9.17;;
11048;SDS011;5577;42.706;23.160;2023-05-07T01:54:03;12.37;;;9.77;;
11048;SDS011;5577;42.706;23.160;2023-05-07T01:56:47;11.97;;;10.37;;
11048;SDS011;5577;42.706;23.160;2023-05-07T01:59:32;11.17;;;9.97;;
11048;SDS011;5577;42.706;23.160;2023-05-07T02:02:16;10.57;;;9.47;;
11048;SDS011;5577;42.706;23.160;2023-05-07T02:05:00;10.03;;;9.03;;
11048;SDS011;5577;42.706;23.160;2023-05-07T02:07:45;10.70;;;9.63;;
11048;SDS011;5577;42.706;23.160;2023-05-07T02:10:29;11.20;;;10.03;;
11048;SDS011;5577;42.706;23.160;2023-05-07T02:13:13;11.47;;;10.27;;
11048;SDS011;5577;42.706;23.160;2023-05-07T02:15:57;12.27;;;10.23;;
11048;SDS011;5577;42.706;23.160;2023-05-07T02:18:41;13.37;;;10.53;;
11048;SDS011;5577;42.706;23.160;2023-05-07T02:21:25;11.37;;;9.80;;
11048;SDS011;5577;42.706;23.160;2023-05-07T02:24:08;12.10;;;10.23;;
11048;SDS011;5577;42.706;23.160;2023-05-07T02:26:52;11.53;;;10.33;;
11048;SDS011;5577;42.706;23.160;2023-05-07T02:29:36;11.60;;;10.00;;
11048;SDS011;5577;42.706;23.160;2023-05-07T02:32:20;11.83;;;8.93;;
11048;SDS011;5577;42.706;23.160;2023-05-07T02:35:04;10.43;;;9.30;;
11048;SDS011;5577;42.706;23.160;2023-05-07T02:37:48;10.33;;;9.20;;
11048;SDS011;5577;42.706;23.160;2023-05-07T02:40:32;10.80;;;9.10;;
11048;SDS011;5577;42.706;23.160;2023-05-07T02:43:22;10.90;;;9.50;;
11048;SDS011;5577;42.706;23.160;2023-05-07T02:46:06;12.13;;;10.07;;
11048;SDS011;5577;42.706;23.160;2023-05-07T02:48:52;12.50;;;10.30;;
11048;SDS011;5577;42.706;23.160;2023-05-07T02:51:36;12.67;;;10.43;;
11048;SDS011;5577;42.706;23.160;2023-05-07T02:54:20;11.57;;;10.37;;
11048;SDS011;5577;42.706;23.160;2023-05-07T02:57:03;13.53;;;11.07;;
11048;SDS011;5577;42.706;23.160;2023-05-07T02:59:47;11.53;;;10.33;;
11048;SDS011;5577;42.706;23.160;2023-05-07T03:02:31;11.97;;;10.27;;
11048;SDS011;5577;42.706;23.160;2023-05-07T03:05:15;11.43;;;10.23;;
11048;SDS011;5577;42.706;23.160;2023-05-07T03:08:00;11.47;;;10.13;;
11048;SDS011;5577;42.706;23.160;2023-05-07T03:10:44;13.07;;;10.43;;
11048;SDS011;5577;42.706;23.160;2023-05-07T03:13:28;10.57;;;9.37;;
11048;SDS011;5577;42.706;23.160;2023-05-07T03:16:13;12.57;;;10.37;;
11048;SDS011;5577;42.706;23.160;2023-05-07T03:18:57;11.10;;;9.90;;
11048;SDS011;5577;42.706;23.160;2023-05-07T03:21:40;12.30;;;9.53;;
11048;SDS011;5577;42.706;23.160;2023-05-07T03:24:24;13.83;;;9.70;;
11048;SDS011;5577;42.706;23.160;2023-05-07T03:27:08;11.20;;;10.00;;
11048;SDS011;5577;42.706;23.160;2023-05-07T03:29:52;12.43;;;10.20;;
11048;SDS011;5577;42.706;23.160;2023-05-07T03:32:36;13.23;;;10.40;;
11048;SDS011;5577;42.706;23.160;2023-05-07T03:35:20;14.67;;;11.20;;
11048;SDS011;5577;42.706;23.160;2023-05-07T03:38:04;14.40;;;12.90;;
11048;SDS011;5577;42.706;23.160;2023-05-07T03:40:48;12.90;;;10.90;;
11048;SDS011;5577;42.706;23.160;2023-05-07T03:43:32;12.20;;;10.90;;
11048;SDS011;5577;42.706;23.160;2023-05-07T03:46:16;14.27;;;12.30;;
11048;SDS011;5577;42.706;23.160;2023-05-07T03:48:59;17.53;;;13.07;;
11048;SDS011;5577;42.706;23.160;2023-05-07T03:51:43;16.63;;;13.53;;
11048;SDS011;5577;42.706;23.160;2023-05-07T03:54:27;14.10;;;11.87;;
11048;SDS011;5577;42.706;23.160;2023-05-07T03:57:11;13.60;;;12.20;;
11048;SDS011;5577;42.706;23.160;2023-05-07T03:59:55;14.13;;;11.83;;
11048;SDS011;5577;42.706;23.160;2023-05-07T04:02:39;13.07;;;11.20;;
11048;SDS011;5577;42.706;23.160;2023-05-07T04:05:23;15.07;;;12.97;;
11048;SDS011;5577;42.706;23.160;2023-05-07T04:08:07;13.37;;;11.00;;
11048;SDS011;5577;42.706;23.160;2023-05-07T04:10:57;12.47;;;11.17;;
11048;SDS011;5577;42.706;23.160;2023-05-07T04:13:42;11.97;;;10.37;;
11048;SDS011;5577;42.706;23.160;2023-05-07T04:16:26;15.13;;;10.27;;
11048;SDS011;5577;42.706;23.160;2023-05-07T04:19:11;11.77;;;9.97;;
11048;SDS011;5577;42.706;23.160;2023-05-07T04:21:54;13.73;;;11.80;;
11048;SDS011;5577;42.706;23.160;2023-05-07T04:24:38;14.10;;;11.83;;
11048;SDS011;5577;42.706;23.160;2023-05-07T04:27:23;12.67;;;11.20;;
11048;SDS011;5577;42.706;23.160;2023-05-07T04:30:07;15.37;;;11.47;;
11048;SDS011;5577;42.706;23.160;2023-05-07T04:32:51;13.43;;;11.57;;
11048;SDS011;5577;42.706;23.160;2023-05-07T04:35:36;15.30;;;11.87;;
11048;SDS011;5577;42.706;23.160;2023-05-07T04:38:21;12.63;;;11.03;;
11048;SDS011;5577;42.706;23.160;2023-05-07T04:41:08;15.07;;;12.20;;
11048;SDS011;5577;42.706;23.160;2023-05-07T04:43:53;16.40;;;12.00;;
11048;SDS011;5577;42.706;23.160;2023-05-07T04:46:37;15.47;;;12.10;;
11048;SDS011;5577;42.706;23.160;2023-05-07T04:49:21;15.87;;;11.60;;
11048;SDS011;5577;42.706;23.160;2023-05-07T04:52:05;14.77;;;11.90;;
11048;SDS011;5577;42.706;23.160;2023-05-07T04:54:48;17.90;;;12.23;;
11048;SDS011;5577;42.706;23.160;2023-05-07T04:57:32;15.80;;;13.03;;
11048;SDS011;5577;42.706;23.160;2023-05-07T05:00:16;15.33;;;13.00;;
11048;SDS011;5577;42.706;23.160;2023-05-07T05:03:02;15.90;;;12.70;;
11048;SDS011;5577;42.706;23.160;2023-05-07T05:05:48;14.80;;;12.57;;
11048;SDS011;5577;42.706;23.160;2023-05-07T05:08:33;13.80;;;12.37;;
11048;SDS011;5577;42.706;23.160;2023-05-07T05:11:17;13.90;;;12.37;;
11048;SDS011;5577;42.706;23.160;2023-05-07T05:14:01;13.97;;;12.47;;
11048;SDS011;5577;42.706;23.160;2023-05-07T05:16:45;16.27;;;12.33;;
11048;SDS011;5577;42.706;23.160;2023-05-07T05:19:30;14.47;;;12.33;;
11048;SDS011;5577;42.706;23.160;2023-05-07T05:22:14;14.50;;;12.47;;
11048;SDS011;5577;42.706;23.160;2023-05-07T05:24:59;13.03;;;11.30;;
11048;SDS011;5577;42.706;23.160;2023-05-07T05:27:43;13.43;;;11.80;;
11048;SDS011;5577;42.706;23.160;2023-05-07T05:30:27;15.90;;;12.87;;
11048;SDS011;5577;42.706;23.160;2023-05-07T05:33:11;14.63;;;11.97;;
11048;SDS011;5577;42.706;23.160;2023-05-07T05:35:55;14.30;;;12.13;;
11048;SDS011;5577;42.706;23.160;2023-05-07T05:38:39;13.37;;;11.93;;
11048;SDS011;5577;42.706;23.160;2023-05-07T05:41:23;12.73;;;11.30;;
11048;SDS011;5577;42.706;23.160;2023-05-07T05:44:08;16.73;;;11.27;;
11048;SDS011;5577;42.706;23.160;2023-05-07T05:46:52;14.80;;;11.83;;
11048;SDS011;5577;42.706;23.160;2023-05-07T05:49:38;12.47;;;10.93;;
11048;SDS011;5577;42.706;23.160;2023-05-07T05:52:22;13.17;;;11.37;;
11048;SDS011;5577;42.706;23.160;2023-05-07T05:55:07;13.60;;;12.00;;
11048;SDS011;5577;42.706;23.160;2023-05-07T05:57:52;12.70;;;11.40;;
11048;SDS011;5577;42.706;23.160;2023-05-07T06:00:36;13.37;;;11.60;;
11048;SDS011;5577;42.706;23.160;2023-05-07T06:03:21;13.40;;;12.00;;
11048;SDS011;5577;42.706;23.160;2023-05-07T06:06:04;14.77;;;11.70;;
11048;SDS011;5577;42.706;23.160;2023-05-07T06:08:49;11.90;;;10.70;;
11048;SDS011;5577;42.706;23.160;2023-05-07T06:11:33;13.60;;;10.90;;
11048;SDS011;5577;42.706;23.160;2023-05-07T06:14:17;11.40;;;10.23;;
11048;SDS011;5577;42.706;23.160;2023-05-07T06:17:01;11.63;;;10.43;;
11048;SDS011;5577;42.706;23.160;2023-05-07T06:19:45;12.87;;;10.27;;
11048;SDS011;5577;42.706;23.160;2023-05-07T06:22:29;12.97;;;9.77;;
11048;SDS011;5577;42.706;23.160;2023-05-07T06:25:14;11.37;;;10.17;;
11048;SDS011;5577;42.706;23.160;2023-05-07T06:27:58;10.47;;;9.27;;
11048;SDS011;5577;42.706;23.160;2023-05-07T06:30:42;11.57;;;10.07;;
11048;SDS011;5577;42.706;23.160;2023-05-07T06:33:26;11.63;;;10.37;;
11048;SDS011;5577;42.706;23.160;2023-05-07T06:36:10;11.63;;;9.73;;
11048;SDS011;5577;42.706;23.160;2023-05-07T06:38:54;13.27;;;9.83;;
11048;SDS011;5577;42.706;23.160;2023-05-07T06:41:38;10.50;;;9.47;;
11048;SDS011;5577;42.706;23.160;2023-05-07T06:44:22;12.03;;;10.03;;
11048;SDS011;5577;42.706;23.160;2023-05-07T06:47:07;11.47;;;9.73;;
11048;SDS011;5577;42.706;23.160;2023-05-07T06:49:50;11.60;;;8.93;;
11048;SDS011;5577;42.706;23.160;2023-05-07T06:52:35;10.43;;;9.37;;
11048;SDS011;5577;42.706;23.160;2023-05-07T06:55:19;10.03;;;8.87;;
11048;SDS011;5577;42.706;23.160;2023-05-07T06:58:03;12.33;;;9.30;;
11048;SDS011;5577;42.706;23.160;2023-05-07T07:00:48;11.53;;;9.67;;
11048;SDS011;5577;42.706;23.160;2023-05-07T07:03:32;11.07;;;9.40;;
11048;SDS011;5577;42.706;23.160;2023-05-07T07:06:15;11.77;;;8.73;;
11048;SDS011;5577;42.706;23.160;2023-05-07T07:09:00;12.97;;;9.83;;
11048;SDS011;5577;42.706;23.160;2023-05-07T07:11:44;11.10;;;9.37;;
11048;SDS011;5577;42.706;23.160;2023-05-07T07:14:28;13.97;;;10.53;;
11048;SDS011;5577;42.706;23.160;2023-05-07T07:17:11;10.97;;;9.17;;
11048;SDS011;5577;42.706;23.160;2023-05-07T07:19:55;10.70;;;9.60;;
11048;SDS011;5577;42.706;23.160;2023-05-07T07:22:39;11.33;;;9.10;;
11048;SDS011;5577;42.706;23.160;2023-05-07T07:25:23;9.50;;;8.60;;
11048;SDS011;5577;42.706;23.160;2023-05-07T07:28:07;10.77;;;8.33;;
11048;SDS011;5577;42.706;23.160;2023-05-07T07:30:51;11.30;;;8.30;;
11048;SDS011;5577;42.706;23.160;2023-05-07T07:33:35;8.43;;;7.63;;
11048;SDS011;5577;42.706;23.160;2023-05-07T07:36:19;9.00;;;7.80;;
11048;SDS011;5577;42.706;23.160;2023-05-07T07:39:03;9.27;;;8.27;;
11048;SDS011;5577;42.706;23.160;2023-05-07T07:41:47;9.47;;;8.47;;
11048;SDS011;5577;42.706;23.160;2023-05-07T07:44:31;8.97;;;8.00;;
11048;SDS011;5577;42.706;23.160;2023-05-07T07:47:15;9.50;;;8.50;;
11048;SDS011;5577;42.706;23.160;2023-05-07T07:49:59;10.07;;;8.30;;
11048;SDS011;5577;42.706;23.160;2023-05-07T07:52:43;9.87;;;7.90;;
11048;SDS011;5577;42.706;23.160;2023-05-07T07:55:27;14.70;;;10.10;;
11048;SDS011;5577;42.706;23.160;2023-05-07T07:58:12;10.03;;;8.20;;
11048;SDS011;5577;42.706;23.160;2023-05-07T08:00:55;9.27;;;8.37;;
11048;SDS011;5577;42.706;23.160;2023-05-07T08:03:39;8.73;;;7.80;;
11048;SDS011;5577;42.706;23.160;2023-05-07T08:06:24;10.60;;;7.47;;
11048;SDS011;5577;42.706;23.160;2023-05-07T08:09:09;10.17;;;7.83;;
11048;SDS011;5577;42.706;23.160;2023-05-07T08:11:53;8.80;;;7.90;;
11048;SDS011;5577;42.706;23.160;2023-05-07T08:14:37;9.00;;;7.50;;
11048;SDS011;5577;42.706;23.160;2023-05-07T08:17:21;8.77;;;7.87;;
11048;SDS011;5577;42.706;23.160;2023-05-07T08:20:05;7.97;;;6.87;;
11048;SDS011;5577;42.706;23.160;2023-05-07T08:22:51;7.67;;;6.97;;
11048;SDS011;5577;42.706;23.160;2023-05-07T08:25:35;7.97;;;6.60;;
11048;SDS011;5577;42.706;23.160;2023-05-07T08:28:19;9.30;;;7.53;;
11048;SDS011;5577;42.706;23.160;2023-05-07T08:31:04;7.30;;;6.67;;
11048;SDS011;5577;42.706;23.160;2023-05-07T08:33:49;8.33;;;6.90;;
11048;SDS011;5577;42.706;23.160;2023-05-07T08:36:34;8.17;;;6.53;;
11048;SDS011;5577;42.706;23.160;2023-05-07T08:39:18;7.33;;;6.53;;
11048;SDS011;5577;42.706;23.160;2023-05-07T08:42:02;7.20;;;6.47;;
11048;SDS011;5577;42.706;23.160;2023-05-07T08:44:48;7.30;;;6.60;;
11048;SDS011;5577;42.706;23.160;2023-05-07T08:47:43;6.57;;;5.97;;
11048;SDS011;5577;42.706;23.160;2023-05-07T08:50:31;10.47;;;6.70;;
11048;SDS011;5577;42.706;23.160;2023-05-07T08:53:15;6.90;;;6.20;;
11048;SDS011;5577;42.706;23.160;2023-05-07T08:56:00;6.40;;;5.90;;
11048;SDS011;5577;42.706;23.160;2023-05-07T08:58:44;11.30;;;5.83;;
11048;SDS011;5577;42.706;23.160;2023-05-07T09:01:29;6.30;;;5.70;;
11048;SDS011;5577;42.706;23.160;2023-05-07T09:04:13;6.20;;;5.60;;
11048;SDS011;5577;42.706;23.160;2023-05-07T09:06:57;6.20;;;5.60;;
11048;SDS011;5577;42.706;23.160;2023-05-07T09:09:47;6.63;;;5.47;;
11048;SDS011;5577;42.706;23.160;2023-05-07T09:12:31;5.90;;;5.20;;
11048;SDS011;5577;42.706;23.160;2023-05-07T09:15:15;8.33;;;5.50;;
11048;SDS011;5577;42.706;23.160;2023-05-07T09:18:00;5.93;;;5.03;;
11048;SDS011;5577;42.706;23.160;2023-05-07T09:20:47;5.20;;;4.73;;
11048;SDS011;5577;42.706;23.160;2023-05-07T09:23:31;6.20;;;5.27;;
11048;SDS011;5577;42.706;23.160;2023-05-07T09:26:15;7.90;;;4.87;;
11048;SDS011;5577;42.706;23.160;2023-05-07T09:28:59;5.43;;;4.93;;
11048;SDS011;5577;42.706;23.160;2023-05-07T09:31:43;5.20;;;4.73;;
11048;SDS011;5577;42.706;23.160;2023-05-07T09:34:28;6.33;;;5.37;;
11048;SDS011;5577;42.706;23.160;2023-05-07T09:37:15;6.03;;;5.33;;
11048;SDS011;5577;42.706;23.160;2023-05-07T09:40:00;8.73;;;4.90;;
11048;SDS011;5577;42.706;23.160;2023-05-07T09:42:44;5.33;;;4.70;;
11048;SDS011;5577;42.706;23.160;2023-05-07T09:45:28;6.83;;;4.70;;
11048;SDS011;5577;42.706;23.160;2023-05-07T09:48:12;5.27;;;4.77;;
11048;SDS011;5577;42.706;23.160;2023-05-07T09:51:01;6.77;;;4.80;;
11048;SDS011;5577;42.706;23.160;2023-05-07T09:53:47;7.43;;;5.00;;
11048;SDS011;5577;42.706;23.160;2023-05-07T09:56:32;7.17;;;5.00;;
11048;SDS011;5577;42.706;23.160;2023-05-07T09:59:16;5.70;;;4.20;;
11048;SDS011;5577;42.706;23.160;2023-05-07T10:02:00;5.00;;;4.20;;
11048;SDS011;5577;42.706;23.160;2023-05-07T10:04:45;4.63;;;4.23;;
11048;SDS011;5577;42.706;23.160;2023-05-07T10:07:30;4.83;;;4.33;;
11048;SDS011;5577;42.706;23.160;2023-05-07T10:10:14;5.77;;;4.00;;
11048;SDS011;5577;42.706;23.160;2023-05-07T10:12:59;5.03;;;4.30;;
11048;SDS011;5577;42.706;23.160;2023-05-07T10:15:45;4.60;;;4.20;;
11048;SDS011;5577;42.706;23.160;2023-05-07T10:18:31;4.30;;;3.90;;
11048;SDS011;5577;42.706;23.160;2023-05-07T10:21:20;4.37;;;3.97;;
11048;SDS011;5577;42.706;23.160;2023-05-07T10:24:10;4.87;;;4.40;;
11048;SDS011;5577;42.706;23.160;2023-05-07T10:27:00;5.13;;;4.10;;
11048;SDS011;5577;42.706;23.160;2023-05-07T10:32:56;4.53;;;4.13;;
11048;SDS011;5577;42.706;23.160;2023-05-07T10:35:49;6.07;;;4.10;;
11048;SDS011;5577;42.706;23.160;2023-05-07T10:38:33;4.70;;;4.30;;
11048;SDS011;5577;42.706;23.160;2023-05-07T10:41:17;5.60;;;4.97;;
11048;SDS011;5577;42.706;23.160;2023-05-07T10:44:02;4.43;;;4.03;;
11048;SDS011;5577;42.706;23.160;2023-05-07T10:47:00;4.10;;;3.67;;
11048;SDS011;5577;42.706;23.160;2023-05-07T11:02:03;5.87;;;3.87;;
11048;SDS011;5577;42.706;23.160;2023-05-07T11:05:32;3.90;;;3.60;;
11048;SDS011;5577;42.706;23.160;2023-05-07T11:08:06;4.13;;;3.43;;
11048;SDS011;5577;42.706;23.160;2023-05-07T11:10:55;7.07;;;3.80;;
11048;SDS011;5577;42.706;23.160;2023-05-07T11:13:43;4.50;;;3.90;;
11048;SDS011;5577;42.706;23.160;2023-05-07T11:16:28;4.27;;;3.53;;
11048;SDS011;5577;42.706;23.160;2023-05-07T11:19:13;3.90;;;3.50;;
11048;SDS011;5577;42.706;23.160;2023-05-07T11:21:57;4.60;;;3.63;;
11048;SDS011;5577;42.706;23.160;2023-05-07T11:24:41;3.90;;;3.50;;
11048;SDS011;5577;42.706;23.160;2023-05-07T11:27:26;3.70;;;3.50;;
11048;SDS011;5577;42.706;23.160;2023-05-07T11:30:12;4.17;;;3.70;;
11048;SDS011;5577;42.706;23.160;2023-05-07T11:33:02;3.90;;;3.50;;
11048;SDS011;5577;42.706;23.160;2023-05-07T11:35:47;5.77;;;3.80;;
11048;SDS011;5577;42.706;23.160;2023-05-07T11:38:34;4.87;;;3.83;;
11048;SDS011;5577;42.706;23.160;2023-05-07T11:41:19;5.00;;;3.30;;
11048;SDS011;5577;42.706;23.160;2023-05-07T11:44:05;3.60;;;3.30;;
11048;SDS011;5577;42.706;23.160;2023-05-07T11:46:49;4.87;;;3.40;;
11048;SDS011;5577;42.706;23.160;2023-05-07T11:49:33;3.90;;;3.60;;
11048;SDS011;5577;42.706;23.160;2023-05-07T11:52:18;3.87;;;3.57;;
11048;SDS011;5577;42.706;23.160;2023-05-07T11:55:04;5.43;;;4.13;;
11048;SDS011;5577;42.706;23.160;2023-05-07T11:57:48;3.43;;;3.13;;
11048;SDS011;5577;42.706;23.160;2023-05-07T12:00:32;3.10;;;2.90;;
11048;SDS011;5577;42.706;23.160;2023-05-07T12:03:16;3.67;;;3.40;;
11048;SDS011;5577;42.706;23.160;2023-05-07T12:06:01;3.70;;;3.40;;
11048;SDS011;5577;42.706;23.160;2023-05-07T12:08:46;3.60;;;3.30;;
11048;SDS011;5577;42.706;23.160;2023-05-07T12:11:30;4.47;;;3.70;;
11048;SDS011;5577;42.706;23.160;2023-05-07T12:14:14;3.47;;;3.17;;
11048;SDS011;5577;42.706;23.160;2023-05-07T12:17:00;4.80;;;3.30;;
11048;SDS011;5577;42.706;23.160;2023-05-07T12:19:46;3.80;;;3.50;;
11048;SDS011;5577;42.706;23.160;2023-05-07T12:22:30;3.53;;;3.20;;
11048;SDS011;5577;42.706;23.160;2023-05-07T12:25:14;5.43;;;3.40;;
11048;SDS011;5577;42.706;23.160;2023-05-07T12:28:03;3.47;;;3.10;;
11048;SDS011;5577;42.706;23.160;2023-05-07T12:30:49;3.70;;;3.40;;
11048;SDS011;5577;42.706;23.160;2023-05-07T12:33:34;3.70;;;3.40;;
11048;SDS011;5577;42.706;23.160;2023-05-07T12:36:19;3.67;;;3.37;;
11048;SDS011;5577;42.706;23.160;2023-05-07T12:39:05;3.95;;;3.10;;
11048;SDS011;5577;42.706;23.160;2023-05-07T12:41:56;3.83;;;3.53;;
11048;SDS011;5577;42.706;23.160;2023-05-07T12:44:45;4.85;;;3.40;;
11048;SDS011;5577;42.706;23.160;2023-05-07T12:47:30;3.33;;;3.13;;
11048;SDS011;5577;42.706;23.160;2023-05-07T12:50:14;5.30;;;3.63;;
11048;SDS011;5577;42.706;23.160;2023-05-07T12:52:59;3.60;;;3.30;;
11048;SDS011;5577;42.706;23.160;2023-05-07T12:55:47;4.88;;;3.30;;
11048;SDS011;5577;42.706;23.160;2023-05-07T12:58:33;3.58;;;3.28;;
11048;SDS011;5577;42.706;23.160;2023-05-07T13:01:18;3.28;;;2.97;;
11048;SDS011;5577;42.706;23.160;2023-05-07T13:04:02;3.95;;;3.08;;
11048;SDS011;5577;42.706;23.160;2023-05-07T13:06:47;4.57;;;3.08;;
11048;SDS011;5577;42.706;23.160;2023-05-07T13:09:31;3.58;;;3.28;;
11048;SDS011;5577;42.706;23.160;2023-05-07T13:12:15;4.13;;;3.35;;
11048;SDS011;5577;42.706;23.160;2023-05-07T13:14:59;4.47;;;3.22;;
11048;SDS011;5577;42.706;23.160;2023-05-07T13:17:43;3.83;;;3.53;;
11048;SDS011;5577;42.706;23.160;2023-05-07T13:20:27;3.30;;;3.10;;
11048;SDS011;5577;42.706;23.160;2023-05-07T13:23:11;5.10;;;3.50;;
11048;SDS011;5577;42.706;23.160;2023-05-07T13:25:55;4.17;;;3.53;;
11048;SDS011;5577;42.706;23.160;2023-05-07T13:28:39;3.60;;;3.07;;
11048;SDS011;5577;42.706;23.160;2023-05-07T13:31:24;3.77;;;3.33;;
11048;SDS011;5577;42.706;23.160;2023-05-07T13:34:08;3.93;;;3.60;;
11048;SDS011;5577;42.706;23.160;2023-05-07T13:36:53;3.57;;;3.27;;
11048;SDS011;5577;42.706;23.160;2023-05-07T13:39:37;3.80;;;3.50;;
11048;SDS011;5577;42.706;23.160;2023-05-07T13:42:21;4.10;;;3.50;;
11048;SDS011;5577;42.706;23.160;2023-05-07T13:45:05;3.67;;;3.43;;
11048;SDS011;5577;42.706;23.160;2023-05-07T13:47:49;4.20;;;3.50;;
11048;SDS011;5577;42.706;23.160;2023-05-07T13:50:34;4.13;;;3.47;;
11048;SDS011;5577;42.706;23.160;2023-05-07T13:53:18;3.73;;;3.43;;
11048;SDS011;5577;42.706;23.160;2023-05-07T13:56:02;3.80;;;3.40;;
11048;SDS011;5577;42.706;23.160;2023-05-07T13:58:48;5.17;;;3.77;;
11048;SDS011;5577;42.706;23.160;2023-05-07T14:01:32;4.80;;;3.80;;
11048;SDS011;5577;42.706;23.160;2023-05-07T14:04:16;4.00;;;3.60;;
11048;SDS011;5577;42.706;23.160;2023-05-07T14:07:00;3.50;;;3.20;;
11048;SDS011;5577;42.706;23.160;2023-05-07T14:09:44;4.10;;;3.60;;
11048;SDS011;5577;42.706;23.160;2023-05-07T14:12:29;4.17;;;3.77;;
11048;SDS011;5577;42.706;23.160;2023-05-07T14:15:13;4.03;;;3.63;;
11048;SDS011;5577;42.706;23.160;2023-05-07T14:17:57;4.60;;;4.20;;
11048;SDS011;5577;42.706;23.160;2023-05-07T14:20:42;3.90;;;3.60;;
11048;SDS011;5577;42.706;23.160;2023-05-07T14:23:30;4.17;;;3.77;;
11048;SDS011;5577;42.706;23.160;2023-05-07T14:26:14;4.30;;;3.73;;
11048;SDS011;5577;42.706;23.160;2023-05-07T14:28:58;3.43;;;3.23;;
11048;SDS011;5577;42.706;23.160;2023-05-07T14:31:42;3.67;;;3.33;;
11048;SDS011;5577;42.706;23.160;2023-05-07T14:34:26;4.73;;;3.93;;
11048;SDS011;5577;42.706;23.160;2023-05-07T14:37:10;4.47;;;3.70;;
11048;SDS011;5577;42.706;23.160;2023-05-07T14:39:54;3.87;;;3.57;;
11048;SDS011;5577;42.706;23.160;2023-05-07T14:42:38;4.37;;;3.40;;
11048;SDS011;5577;42.706;23.160;2023-05-07T14:45:22;4.60;;;4.20;;
11048;SDS011;5577;42.706;23.160;2023-05-07T14:48:06;4.70;;;3.30;;
11048;SDS011;5577;42.706;23.160;2023-05-07T14:50:50;4.40;;;3.43;;
11048;SDS011;5577;42.706;23.160;2023-05-07T14:53:34;3.53;;;3.03;;
11048;SDS011;5577;42.706;23.160;2023-05-07T14:56:17;3.80;;;3.43;;
11048;SDS011;5577;42.706;23.160;2023-05-07T14:59:02;4.20;;;3.40;;
11048;SDS011;5577;42.706;23.160;2023-05-07T15:01:47;7.00;;;5.00;;
11048;SDS011;5577;42.706;23.160;2023-05-07T15:04:31;3.40;;;3.20;;
11048;SDS011;5577;42.706;23.160;2023-05-07T15:07:15;4.37;;;3.20;;
11048;SDS011;5577;42.706;23.160;2023-05-07T15:09:59;4.00;;;3.60;;
11048;SDS011;5577;42.706;23.160;2023-05-07T15:12:44;3.90;;;3.60;;
11048;SDS011;5577;42.706;23.160;2023-05-07T15:15:28;4.33;;;3.97;;
11048;SDS011;5577;42.706;23.160;2023-05-07T15:18:12;4.10;;;3.43;;
11048;SDS011;5577;42.706;23.160;2023-05-07T15:20:56;4.67;;;3.73;;
11048;SDS011;5577;42.706;23.160;2023-05-07T15:23:41;4.33;;;3.63;;
11048;SDS011;5577;42.706;23.160;2023-05-07T15:26:25;8.27;;;3.83;;
11048;SDS011;5577;42.706;23.160;2023-05-07T15:29:09;4.27;;;3.73;;
11048;SDS011;5577;42.706;23.160;2023-05-07T15:31:53;9.77;;;3.77;;
11048;SDS011;5577;42.706;23.160;2023-05-07T15:34:38;6.23;;;3.83;;
11048;SDS011;5577;42.706;23.160;2023-05-07T15:37:22;5.63;;;3.87;;
11048;SDS011;5577;42.706;23.160;2023-05-07T15:40:06;3.80;;;3.50;;
11048;SDS011;5577;42.706;23.160;2023-05-07T15:42:52;5.30;;;4.13;;
11048;SDS011;5577;42.706;23.160;2023-05-07T15:45:39;4.00;;;3.60;;
11048;SDS011;5577;42.706;23.160;2023-05-07T15:48:24;12.87;;;8.33;;
11048;SDS011;5577;42.706;23.160;2023-05-07T15:51:08;7.13;;;4.60;;
11048;SDS011;5577;42.706;23.160;2023-05-07T15:53:53;7.53;;;4.50;;
11048;SDS011;5577;42.706;23.160;2023-05-07T15:56:36;5.23;;;4.00;;
11048;SDS011;5577;42.706;23.160;2023-05-07T15:59:20;4.37;;;3.90;;
11048;SDS011;5577;42.706;23.160;2023-05-07T16:02:05;6.07;;;4.43;;
11048;SDS011;5577;42.706;23.160;2023-05-07T16:04:50;4.50;;;4.10;;
11048;SDS011;5577;42.706;23.160;2023-05-07T16:07:35;4.00;;;3.60;;
11048;SDS011;5577;42.706;23.160;2023-05-07T16:10:19;4.63;;;3.93;;
11048;SDS011;5577;42.706;23.160;2023-05-07T16:13:03;4.90;;;3.83;;
11048;SDS011;5577;42.706;23.160;2023-05-07T16:15:47;4.73;;;4.10;;
11048;SDS011;5577;42.706;23.160;2023-05-07T16:18:31;4.13;;;3.83;;
11048;SDS011;5577;42.706;23.160;2023-05-07T16:21:16;4.90;;;4.40;;
11048;SDS011;5577;42.706;23.160;2023-05-07T16:24:00;8.33;;;6.00;;
11048;SDS011;5577;42.706;23.160;2023-05-07T16:26:44;9.80;;;8.40;;
11048;SDS011;5577;42.706;23.160;2023-05-07T16:29:28;9.57;;;6.23;;
11048;SDS011;5577;42.706;23.160;2023-05-07T16:32:12;7.17;;;5.23;;
11048;SDS011;5577;42.706;23.160;2023-05-07T16:34:56;5.93;;;5.23;;